首页
METAR-TAF:

METAR-TAF

机场 :

迪奥里·哈马尼国际机场

尼亞美, 尼日尔

纬度: 13-29N, 经度: 002-10E, 海拔: 223米

当前天气观测

该预报发布于50分钟前的21:00 UTC
风速5节,风向东转东南
温度 32°C
湿度 18%
气压 1010 hPa
能見度: 8000

METAR: DRRN 212100Z 12005KT 8000 NSC 32/05 Q1010 NOSIG

时间: 22:50 (21:50 UTC)

预报

该预报发布于4小时和50分钟前的17:00 UTC
预报有效从21日的 18点(UTC)到 22日的 24点(UTC)
风速10节,风向东转东南
能見度: 8000
短暂存在
从 22日的 07点(UTC)到 22日的 10点(UTC)
能見度: 4000
浮尘

TAF: DRRN 211700Z 2118/2224 12010KT 8000 NSC TEMPO 2207/2210 4000 DU

超过4000个机场的气象观测和天气预报(METAR&TAF报告)。

可查询的气象台以黄色和红色小点在地图上表示。

将鼠标移到小点上方,可查看气象台名称。

然后点击查看天气观测和预报。

如需切换地图:点击带黑十字的绿色按钮放大地图;点击带横线的绿色按钮缩小地图;或者点击绿色箭头查看邻近地区的地图。


METAR-TAF: